Aeroporto :
LOGIN :

Iscrizione | Disclaimer

   EN    FR    IT 

 










Sommario :    VFR   VFR Marginale   IFR   IFR Intensivo   IFR Molto Intensivo
Visibilità : 
Base nubi : 
>= 8 km
>= 3000ft
5 / 8 km
1000 / 3000 ft
1500m / 5 km
500 / 1000 ft
800 / 1500m
200 / 500 ft
< 800m
< 200 ft
Simboli :   Temporali  Nebbia  Neve Forte  Precipitazioni Forti  Vento > 20 kt
SIGMETs :   Varie  Temporali  Ghiacco  Turbolenza  Onda orograficha  Ceneri Vulcaniche







- Altitudine del aeroporto : 82 ft
- Codice IATA : QIE
- Carte del aeroporto


LFMI - Istres

ULTIMO METAR :
  • 162200Z AUTO 32010KT CAVOK 22/12 Q1015 NOSIG

METARs OBSOLETI :
  • 162130Z AUTO 32011KT CAVOK 22/12 Q1015 NOSIG
  • 162100Z AUTO 32011KT CAVOK 22/12 Q1015 NOSIG
  • 162030Z AUTO 33011KT CAVOK 23/12 Q1015 NOSIG
  • 162000Z AUTO 33013KT CAVOK 23/13 Q1015 NOSIG
  • 161930Z AUTO 33013KT CAVOK 24/13 Q1014 NOSIG

TAF TAF LFMI
Valido dal 16 a 21 ore il 17 a 21 ore UTC


162000Z 1621/1721 32020KT CAVOK
BECMG 1622/1624 35010KT
BECMG 1710/1712 VRB05KT
Nessun NOTAM noto per questo aeroporto.



MetMap, La meteo Aeronautica in un colpo d'occhio ! - Copyright ORBIFLY Dicembre 2007 - Disclaimer

ORBIFLY MET'MAP TEAM :

Programmazione e sviluppo : Alexandra Zaïnal
Concezione e sviluppo : Baudouin d'Aumeries
Co-Programmazione e sviluppo : Marc-Olivier Méhu
Supporto tecnico e logistico : Manuel Goepfert
Aiuto per la traduzione : Arnaldo La Scala

Contatto : metmap@orbifly.com




FONTI E CREDITI :

   NOAA